Time;durP1;ratioP1;P1;durP2;ratioP2;P2;SDS_P1;SDS_P2;PMS_P1;PMS_P2;Temp;Humidity;BMP_temperature;BMP_pressure;BME280_temperature;BME280_humidity;BME280_pressure;Samples;Min_cycle;Max_cycle;Signal;HPM_P1;HPM_P2
2022/01/04 00:01:31;;;;;;;7.90;4.28;;;;;;;7.94;72.38;99261.08;2137853;83;31810;-64
2022/01/04 00:04:33;;;;;;;11.50;5.22;;;;;;;7.95;72.34;99243.26;2138011;83;33424;-64
2022/01/04 00:07:35;;;;;;;9.18;5.10;;;;;;;7.95;72.36;99242.77;2137696;83;30514;-64
2022/01/04 00:10:37;;;;;;;8.40;4.35;;;;;;;7.95;72.34;99243.26;2138496;83;27608;-64
2022/01/04 00:13:39;;;;;;;8.10;3.95;;;;;;;7.96;72.37;99239.64;2137640;83;29894;-64
2022/01/04 00:16:42;;;;;;;11.73;4.83;;;;;;;7.94;72.34;99236.20;2137811;83;27669;-65
2022/01/04 00:19:44;;;;;;;15.25;4.58;;;;;;;7.94;72.37;99240.20;2138360;83;33340;-64
2022/01/04 00:22:46;;;;;;;9.45;4.35;;;;;;;7.95;72.34;99241.92;2138471;83;29667;-65
2022/01/04 00:25:47;;;;;;;11.48;5.47;;;;;;;7.94;72.33;99245.08;2138468;83;27676;-65
2022/01/04 00:28:50;;;;;;;6.85;4.10;;;;;;;7.96;72.39;99243.65;2138105;83;29046;-65
2022/01/04 00:31:52;;;;;;;8.88;4.17;;;;;;;7.96;72.34;99235.65;2137944;83;31930;-65
2022/01/04 00:34:54;;;;;;;7.72;3.33;;;;;;;7.97;72.35;99228.03;2137633;83;34221;-65
2022/01/04 00:37:57;;;;;;;5.37;3.20;;;;;;;7.99;72.40;99224.81;2137844;83;29909;-66
2022/01/04 00:40:59;;;;;;;7.10;3.47;;;;;;;8.00;72.40;99214.53;2138427;83;27972;-65
2022/01/04 00:44:01;;;;;;;6.62;3.10;;;;;;;8.01;72.41;99212.25;2138230;83;28760;-64
2022/01/04 00:47:08;;;;;;;5.22;3.27;;;;;;;8.02;72.40;99207.31;2137873;83;32248;-65
2022/01/04 00:50:09;;;;;;;6.70;3.17;;;;;;;8.03;72.37;99205.00;2138042;83;33755;-66
2022/01/04 00:53:11;;;;;;;3.52;2.72;;;;;;;8.03;72.46;99205.88;2137215;83;29576;-64
2022/01/04 00:56:13;;;;;;;5.65;3.20;;;;;;;8.03;72.35;99199.66;2138181;82;27803;-65
2022/01/04 00:59:17;;;;;;;7.00;2.87;;;;;;;8.02;72.38;99212.16;2137294;83;29043;-64
2022/01/04 01:02:19;;;;;;;5.10;2.95;;;;;;;8.03;72.43;99208.55;2137802;83;31879;-66
2022/01/04 01:05:24;;;;;;;5.65;2.67;;;;;;;8.02;72.35;99204.16;2137783;83;33154;-64
2022/01/04 01:08:25;;;;;;;4.72;2.40;;;;;;;8.01;72.30;99199.77;2138002;83;29362;-65
2022/01/04 01:11:27;;;;;;;4.95;2.17;;;;;;;8.01;72.34;99192.25;2138696;83;27623;-64
2022/01/04 01:14:29;;;;;;;5.12;2.20;;;;;;;8.00;72.24;99188.70;2137922;83;29882;-64
2022/01/04 01:17:31;;;;;;;4.62;2.30;;;;;;;7.97;72.20;99184.03;2137807;83;31876;-64
2022/01/04 01:20:33;;;;;;;6.00;2.47;;;;;;;7.95;72.21;99184.09;2137773;83;34177;-66
2022/01/04 01:23:37;;;;;;;4.62;2.35;;;;;;;7.93;72.17;99179.36;2138621;83;29908;-63
2022/01/04 01:26:38;;;;;;;4.28;2.02;;;;;;;7.88;72.05;99170.26;2138395;83;27565;-64
2022/01/04 01:29:41;;;;;;;5.17;2.12;;;;;;;7.85;71.99;99163.80;2137827;83;29884;-66
2022/01/04 01:32:43;;;;;;;3.47;2.10;;;;;;;7.78;71.96;99150.41;2137827;83;32139;-63
2022/01/04 01:35:46;;;;;;;5.05;1.98;;;;;;;7.69;71.84;99149.61;2137737;83;34337;-63
2022/01/04 01:38:48;;;;;;;3.52;1.72;;;;;;;7.59;71.85;99143.45;2137821;83;30181;-64
2022/01/04 01:41:50;;;;;;;4.05;1.67;;;;;;;7.53;71.98;99149.11;2138335;83;27637;-64
2022/01/04 01:44:52;;;;;;;3.37;1.92;;;;;;;7.49;72.10;99141.38;2138408;83;29898;-64
2022/01/04 01:47:55;;;;;;;5.08;2.37;;;;;;;7.48;72.20;99139.66;2137895;83;32369;-64
2022/01/04 01:50:56;;;;;;;4.35;2.20;;;;;;;7.48;72.30;99140.98;2138207;83;33013;-62
2022/01/04 01:53:59;;;;;;;4.67;2.30;;;;;;;7.48;72.40;99147.20;2137835;83;30594;-64
2022/01/04 01:57:01;;;;;;;5.08;2.67;;;;;;;7.47;72.50;99140.59;2135884;83;27714;-65
2022/01/04 02:00:07;;;;;;;3.12;2.00;;;;;;;7.47;72.54;99137.94;2137857;83;29899;-65
2022/01/04 02:03:09;;;;;;;1.98;1.52;;;;;;;7.44;72.47;99129.19;2134128;83;31802;-63
2022/01/04 02:06:11;;;;;;;3.95;2.15;;;;;;;7.42;72.47;99122.21;2127652;83;33072;-63
2022/01/04 02:09:12;;;;;;;5.90;2.22;;;;;;;7.36;72.48;99116.75;2106634;84;29700;-64
2022/01/04 02:12:15;;;;;;;5.85;1.95;;;;;;;7.36;72.55;99118.58;2121302;83;27658;-64
2022/01/04 02:15:22;;;;;;;4.60;1.85;;;;;;;7.33;72.59;99107.59;2131527;83;28667;-63
2022/01/04 02:18:24;;;;;;;4.70;1.90;;;;;;;7.29;72.60;99106.91;2131671;83;31039;-63
2022/01/04 02:21:26;;;;;;;3.52;1.98;;;;;;;7.27;72.71;99103.47;2131647;83;34127;-63
2022/01/04 02:24:28;;;;;;;3.80;1.95;;;;;;;7.27;72.72;99100.80;2131452;83;30729;-64
2022/01/04 02:27:35;;;;;;;5.65;2.52;;;;;;;7.28;72.71;99090.55;2131743;83;27629;-64
2022/01/04 02:30:37;;;;;;;3.05;1.87;;;;;;;7.29;72.73;99083.39;2131756;83;28635;-65
2022/01/04 02:33:39;;;;;;;4.58;1.92;;;;;;;7.30;72.73;99082.45;2131151;83;32301;-64
2022/01/04 02:36:41;;;;;;;4.28;1.67;;;;;;;7.30;72.70;99082.45;2131390;83;33337;-64
2022/01/04 02:39:43;;;;;;;3.37;1.67;;;;;;;7.28;72.66;99076.38;2131278;83;30236;-64
2022/01/04 02:42:45;;;;;;;2.95;1.82;;;;;;;7.30;72.69;99074.46;2131692;83;27630;-64
2022/01/04 02:45:46;;;;;;;2.85;1.80;;;;;;;7.30;72.78;99066.47;2131737;83;29915;-63
2022/01/04 02:48:48;;;;;;;1.98;1.35;;;;;;;7.30;72.70;99067.34;2131203;83;32214;-64
2022/01/04 02:51:51;;;;;;;2.92;1.40;;;;;;;7.33;72.75;99058.80;2131251;83;34188;-63
2022/01/04 02:54:52;;;;;;;3.47;2.08;;;;;;;7.33;72.67;99063.64;2131729;83;30095;-64
2022/01/04 02:57:55;;;;;;;5.03;1.20;;;;;;;7.34;72.66;99059.19;2131773;83;27643;-64
2022/01/04 03:00:57;;;;;;;1.77;1.20;;;;;;;7.35;72.69;99052.91;2131262;83;30004;-63
2022/01/04 03:04:00;;;;;;;5.58;1.30;;;;;;;7.34;72.74;99042.71;2131126;83;31852;-62
2022/01/04 03:07:02;;;;;;;3.00;2.02;;;;;;;7.37;72.76;99040.34;2131221;83;33799;-63
2022/01/04 03:10:06;;;;;;;4.83;2.65;;;;;;;7.39;72.75;99038.45;2131708;83;29805;-64
2022/01/04 03:13:08;;;;;;;3.67;2.50;;;;;;;7.39;72.74;99036.66;2131392;83;27727;-63
2022/01/04 03:16:11;;;;;;;2.55;1.72;;;;;;;7.41;72.72;99029.44;2131549;83;28473;-64
2022/01/04 03:19:16;;;;;;;3.33;2.27;;;;;;;7.41;72.72;99019.23;2131571;83;31985;-63
2022/01/04 03:22:18;;;;;;;2.42;1.65;;;;;;;7.40;72.69;99014.86;2131193;83;34175;-65
2022/01/04 03:25:20;;;;;;;2.42;1.22;;;;;;;7.39;72.73;99010.02;2130332;83;29389;-65
2022/01/04 03:28:23;;;;;;;2.30;1.20;;;;;;;7.41;72.70;99012.58;2130885;83;27619;-63
2022/01/04 03:31:28;;;;;;;1.92;1.17;;;;;;;7.40;72.73;99010.41;2131762;83;28839;-64
2022/01/04 03:34:30;;;;;;;2.65;1.20;;;;;;;7.40;72.76;99012.19;2087010;85;31490;-63
2022/01/04 03:37:31;;;;;;;2.25;1.10;;;;;;;7.40;72.76;98995.75;2100033;84;33713;-65
2022/01/04 03:40:33;;;;;;;2.02;1.17;;;;;;;7.40;72.76;98993.09;2109309;82;30459;-62
2022/01/04 03:43:37;;;;;;;2.87;1.72;;;;;;;7.41;72.78;98989.93;2107165;82;27670;-63
2022/01/04 03:46:40;;;;;;;1.80;1.37;;;;;;;7.40;72.74;98982.42;2106214;83;28660;-64
2022/01/04 03:49:41;;;;;;;2.77;1.20;;;;;;;7.40;72.71;98978.44;2106333;84;31382;-64
2022/01/04 03:52:43;;;;;;;1.22;0.95;;;;;;;7.41;72.62;98972.61;2106745;83;33384;-64
2022/01/04 03:55:45;;;;;;;2.33;1.05;;;;;;;7.41;72.61;98972.61;2106799;83;30455;-64
2022/01/04 03:58:46;;;;;;;2.22;0.90;;;;;;;7.40;72.58;98962.91;2106919;83;27573;-64
2022/01/04 04:01:50;;;;;;;1.30;1.00;;;;;;;7.40;72.59;98958.91;2106383;83;29520;-63
2022/01/04 04:04:52;;;;;;;2.20;1.20;;;;;;;7.36;72.52;98949.40;2122571;83;31481;-63
2022/01/04 04:07:54;;;;;;;1.52;0.80;;;;;;;7.34;72.58;98953.47;2131601;83;33358;-65
2022/01/04 04:10:56;;;;;;;2.12;1.17;;;;;;;7.32;72.56;98938.53;2131343;83;30169;-63
2022/01/04 04:13:58;;;;;;;1.85;1.10;;;;;;;7.28;72.55;98939.19;2131690;83;27592;-65
2022/01/04 04:17:00;;;;;;;1.52;1.07;;;;;;;7.24;72.63;98930.50;2131507;83;29061;-64
2022/01/04 04:20:03;;;;;;;1.15;1.05;;;;;;;7.24;72.70;98935.82;2131893;83;31359;-64
2022/01/04 04:23:07;;;;;;;3.22;1.70;;;;;;;7.23;72.69;98934.11;2131419;83;33964;-64
2022/01/04 04:26:09;;;;;;;2.55;1.85;;;;;;;7.23;72.78;98930.59;2131446;83;30174;-64
2022/01/04 04:29:11;;;;;;;2.98;1.98;;;;;;;7.23;72.82;98934.59;2131433;83;27824;-63
2022/01/04 04:32:13;;;;;;;2.35;1.77;;;;;;;7.24;72.84;98929.66;2131476;83;29901;-64
2022/01/04 04:35:15;;;;;;;4.62;2.42;;;;;;;7.24;72.87;98925.17;2131548;83;32098;-62
2022/01/04 04:38:18;;;;;;;5.78;2.85;;;;;;;7.27;72.88;98917.50;2131459;83;34400;-64
2022/01/04 04:41:20;;;;;;;8.10;3.00;;;;;;;7.28;72.99;98908.55;2131899;83;29837;-63
2022/01/04 04:44:22;;;;;;;6.78;2.90;;;;;;;7.29;72.98;98903.13;2132225;83;27603;-63
2022/01/04 04:47:24;;;;;;;3.92;1.80;;;;;;;7.31;72.98;98905.69;2131690;83;29487;-64
2022/01/04 04:50:26;;;;;;;4.45;1.67;;;;;;;7.32;72.96;98903.41;2131680;83;31035;-64
2022/01/04 04:53:28;;;;;;;4.15;2.02;;;;;;;7.34;72.99;98907.34;2131796;83;34102;-64
2022/01/04 04:56:30;;;;;;;4.00;1.90;;;;;;;7.35;73.05;98905.05;2131919;83;30068;-63
2022/01/04 04:59:31;;;;;;;2.42;1.65;;;;;;;7.38;73.13;98904.39;2131754;83;27687;-64
2022/01/04 05:02:33;;;;;;;2.35;1.67;;;;;;;7.41;73.08;98903.34;2131865;83;29060;-64
2022/01/04 05:05:35;;;;;;;3.02;2.00;;;;;;;7.42;73.05;98899.27;2110653;82;32258;-62
2022/01/04 05:08:37;;;;;;;2.65;1.72;;;;;;;7.45;73.11;98896.89;2110532;83;33383;-63
2022/01/04 05:11:38;;;;;;;1.82;1.55;;;;;;;7.45;73.11;98883.08;2110313;83;30434;-62
2022/01/04 05:14:45;;;;;;;2.15;1.42;;;;;;;7.49;73.18;98877.57;2110071;84;27715;-62
2022/01/04 05:17:44;;;;;;;1.95;1.50;;;;;;;7.52;73.29;98874.27;2109529;84;28910;-62
2022/01/04 05:20:45;;;;;;;2.12;1.75;;;;;;;7.54;73.29;98872.83;2137527;83;32202;-62
2022/01/04 05:23:47;;;;;;;2.90;1.70;;;;;;;7.55;73.30;98878.05;2137966;83;33074;-64
2022/01/04 05:26:49;;;;;;;4.90;1.87;;;;;;;7.57;73.34;98869.50;2138114;83;29870;-63
2022/01/04 05:29:51;;;;;;;2.70;1.95;;;;;;;7.58;73.29;98861.05;2138242;83;28165;-64
2022/01/04 05:32:52;;;;;;;3.12;1.77;;;;;;;7.59;73.32;98866.27;2138412;83;29206;-64
2022/01/04 05:35:54;;;;;;;2.70;1.80;;;;;;;7.60;73.33;98854.66;2138785;83;31676;-63
2022/01/04 05:38:56;;;;;;;4.83;2.35;;;;;;;7.62;73.36;98862.55;2138408;83;34107;-64
2022/01/04 05:41:58;;;;;;;6.12;3.10;;;;;;;7.62;73.37;98854.55;2138677;83;29463;-62
2022/01/04 05:45:00;;;;;;;10.90;4.28;;;;;;;7.63;73.41;98854.09;2138402;83;27568;-63
2022/01/04 05:48:05;;;;;;;10.03;5.30;;;;;;;7.62;73.40;98837.23;2115579;83;29229;-63
2022/01/04 05:51:07;;;;;;;10.30;4.95;;;;;;;7.63;73.38;98838.95;2110895;84;31180;-63
2022/01/04 05:54:09;;;;;;;7.50;4.60;;;;;;;7.62;73.45;98827.06;2111222;84;33311;-64
2022/01/04 05:57:11;;;;;;;6.85;4.50;;;;;;;7.62;73.48;98824.39;2110873;84;29698;-63
2022/01/04 06:00:15;;;;;;;8.23;4.25;;;;;;;7.61;73.47;98816.89;2110976;84;27743;-63
2022/01/04 06:03:16;;;;;;;8.53;4.70;;;;;;;7.60;73.54;98813.35;2109147;82;29486;-63
2022/01/04 06:06:19;;;;;;;4.97;3.40;;;;;;;7.61;73.57;98807.56;2094633;84;32299;-63
2022/01/04 06:09:26;;;;;;;4.70;3.37;;;;;;;7.60;73.62;98801.36;2094934;85;34257;-65
2022/01/04 06:15:29;;;;;;;6.25;4.70;;;;;;;7.59;73.65;98802.80;2094796;85;27650;-63
2022/01/04 06:18:31;;;;;;;6.80;4.75;;;;;;;7.56;73.77;98802.48;2091434;84;29910;-62
2022/01/04 06:21:32;;;;;;;11.40;6.45;;;;;;;7.56;73.81;98792.32;2090593;85;32374;-62
2022/01/04 06:24:36;;;;;;;9.88;5.90;;;;;;;7.55;74.01;98786.12;2056027;85;33983;-62
2022/01/04 06:27:39;;;;;;;7.05;5.20;;;;;;;7.55;74.01;98782.12;2055710;85;30515;-62
2022/01/04 06:30:41;;;;;;;8.43;5.80;;;;;;;7.53;74.06;98784.02;2029839;85;27730;-62
2022/01/04 06:33:51;;;;;;;8.85;5.92;;;;;;;7.53;74.15;98789.34;2055182;86;30061;-62
2022/01/04 06:36:53;;;;;;;8.58;5.22;;;;;;;7.55;74.24;98790.61;2054573;86;31681;-63
2022/01/04 06:39:54;;;;;;;10.58;5.17;;;;;;;7.54;74.34;98783.56;2055630;86;34155;-63
2022/01/04 06:42:56;;;;;;;7.72;5.05;;;;;;;7.52;74.33;98784.13;2055833;86;29678;-63
2022/01/04 06:45:58;;;;;;;7.50;5.50;;;;;;;7.53;74.52;98782.69;2055740;86;27744;-62
2022/01/04 06:49:00;;;;;;;13.53;6.80;;;;;;;7.56;74.59;98772.33;2061520;86;29094;-62
2022/01/04 06:52:04;;;;;;;10.60;7.60;;;;;;;7.56;74.66;98768.34;2061731;86;31894;-62
2022/01/04 06:55:06;;;;;;;10.00;6.92;;;;;;;7.57;74.74;98762.05;2062016;86;33918;-62
2022/01/04 06:58:08;;;;;;;9.90;6.85;;;;;;;7.56;74.77;98769.17;2061687;86;29337;-62
2022/01/04 07:01:10;;;;;;;10.95;6.80;;;;;;;7.56;74.85;98757.68;2061615;86;27715;-62
2022/01/04 07:04:12;;;;;;;12.85;8.05;;;;;;;7.56;74.95;98754.52;2068850;84;30030;-63
2022/01/04 07:07:14;;;;;;;10.35;7.90;;;;;;;7.56;75.00;98755.02;2085682;85;30881;-63
2022/01/04 07:10:16;;;;;;;15.75;7.70;;;;;;;7.57;75.08;98748.73;2085644;85;34295;-66
2022/01/04 07:13:18;;;;;;;13.35;7.45;;;;;;;7.57;75.14;98746.91;2086056;85;30557;-64
2022/01/04 07:16:20;;;;;;;11.33;7.10;;;;;;;7.59;75.19;98745.50;2085819;85;27709;-65
2022/01/04 07:19:23;;;;;;;13.43;7.75;;;;;;;7.59;75.22;98742.83;2085920;85;29250;-64
2022/01/04 07:22:25;;;;;;;12.98;8.13;;;;;;;7.60;75.31;98739.22;2080988;85;32207;-64
2022/01/04 07:25:27;;;;;;;13.22;7.85;;;;;;;7.63;75.41;98727.50;2062329;86;32590;-67
2022/01/04 07:28:31;;;;;;;13.53;9.30;;;;;;;7.64;75.41;98723.39;2061459;85;30525;-63
2022/01/04 07:31:33;;;;;;;16.52;9.35;;;;;;;7.65;75.44;98725.11;2061885;86;27688;-66
2022/01/04 07:34:35;;;;;;;12.93;8.18;;;;;;;7.67;75.48;98711.21;2062409;86;28692;-66
2022/01/04 07:37:37;;;;;;;17.23;9.18;;;;;;;7.69;75.46;98707.13;2062148;86;32256;-64
2022/01/04 07:40:38;;;;;;;18.35;9.63;;;;;;;7.71;75.60;98704.73;2062060;86;34224;-64
2022/01/04 07:43:41;;;;;;;18.17;11.00;;;;;;;7.75;75.68;98692.94;2062491;86;30541;-63
2022/01/04 07:46:42;;;;;;;18.45;10.38;;;;;;;7.75;75.66;98687.60;2062589;86;27679;-63
2022/01/04 07:49:45;;;;;;;20.35;12.15;;;;;;;7.76;75.63;98681.78;2062212;86;29164;-64
2022/01/04 07:52:47;;;;;;;20.85;10.88;;;;;;;7.77;75.68;98665.33;2062132;86;31813;-65
2022/01/04 07:55:50;;;;;;;16.62;10.80;;;;;;;7.77;75.80;98659.99;2062340;86;33546;-63
2022/01/04 07:58:52;;;;;;;18.05;10.25;;;;;;;7.77;75.77;98650.17;2062409;86;28798;-64
2022/01/04 08:01:53;;;;;;;19.70;11.12;;;;;;;7.75;75.85;98648.08;2062512;86;27572;-64
2022/01/04 08:04:56;;;;;;;18.10;10.98;;;;;;;7.74;75.83;98637.91;2061844;84;29127;-63
2022/01/04 08:08:00;;;;;;;17.37;10.08;;;;;;;7.77;75.95;98626.67;2061404;85;32486;-62
2022/01/04 08:11:03;;;;;;;16.52;9.80;;;;;;;7.79;76.08;98615.41;2061613;86;32989;-62
2022/01/04 08:14:06;;;;;;;12.23;7.85;;;;;;;7.79;76.06;98618.06;2061509;85;30060;-65
2022/01/04 08:17:09;;;;;;;15.45;8.65;;;;;;;7.80;76.18;98606.45;2061813;86;27736;-67
2022/01/04 08:20:11;;;;;;;10.45;7.22;;;;;;;7.82;76.19;98609.88;2061744;85;28816;-66
2022/01/04 08:23:16;;;;;;;41.40;23.92;;;;;;;7.82;76.22;98596.55;2061878;85;30952;-67
2022/01/04 08:26:18;;;;;;;14.73;8.13;;;;;;;7.86;76.41;98593.57;2062033;85;33140;-69
2022/01/04 08:29:30;;;;;;;10.23;7.47;;;;;;;7.90;76.41;98580.42;2061396;85;29441;-69
2022/01/04 08:32:28;;;;;;;11.35;7.08;;;;;;;7.95;76.39;98574.77;2060854;86;27729;-68
2022/01/04 08:35:30;;;;;;;11.10;7.30;;;;;;;8.00;76.47;98572.66;2061605;85;29284;-67
2022/01/04 08:38:32;;;;;;;11.22;6.92;;;;;;;8.06;76.47;98566.93;2061589;85;31764;-66
2022/01/04 08:41:34;;;;;;;10.05;6.92;;;;;;;8.10;76.50;98561.39;2061493;85;34329;-68
2022/01/04 08:44:39;;;;;;;10.72;6.33;;;;;;;8.15;76.47;98562.79;2061504;85;30689;-68
2022/01/04 08:47:41;;;;;;;8.15;4.83;;;;;;;8.20;76.56;98551.80;2062267;85;27624;-65
2022/01/04 08:50:44;;;;;;;10.80;6.33;;;;;;;8.24;76.56;98557.31;2061803;85;29879;-65
2022/01/04 08:53:48;;;;;;;13.00;6.47;;;;;;;8.29;76.69;98555.16;2061632;85;32073;-64
2022/01/04 08:56:50;;;;;;;10.80;6.58;;;;;;;8.36;76.64;98558.25;2061531;85;33267;-69
2022/01/04 08:59:54;;;;;;;9.83;6.95;;;;;;;8.40;76.64;98554.42;2062009;85;30498;-64
2022/01/04 09:02:56;;;;;;;9.50;6.12;;;;;;;8.45;76.63;98560.31;2051103;85;27688;-63
2022/01/04 09:05:58;;;;;;;22.27;13.98;;;;;;;8.50;76.60;98546.67;2031142;86;28718;-66
2022/01/04 09:09:00;;;;;;;12.98;6.30;;;;;;;8.54;76.67;98544.17;2056626;86;31813;-63
2022/01/04 09:12:03;;;;;;;32.20;20.90;;;;;;;8.62;76.66;98539.63;2066705;86;34202;-63
2022/01/04 09:15:32;;;;;;;12.50;7.65;;;;;;;8.66;76.61;98533.12;2076427;85;29449;-63
2022/01/04 09:18:49;;;;;;;10.00;5.95;;;;;;;8.71;76.56;98530.96;2080249;83;28370;-67
2022/01/04 09:21:50;;;;;;;11.38;6.22;;;;;;;8.75;76.60;98521.78;2089020;84;30032;-64
2022/01/04 09:24:52;;;;;;;11.50;6.42;;;;;;;8.81;76.66;98521.81;2070193;83;31153;-70
2022/01/04 09:27:54;;;;;;;12.07;7.87;;;;;;;8.88;76.57;98527.58;2065281;85;33653;-67
2022/01/04 09:30:57;;;;;;;10.53;7.58;;;;;;;8.93;76.58;98520.97;2071122;85;29722;-64
2022/01/04 09:34:02;;;;;;;15.88;9.00;;;;;;;9.01;76.56;98512.87;2123644;83;27713;-64
2022/01/04 09:37:04;;;;;;;15.23;8.35;;;;;;;9.04;76.44;98502.80;2134087;83;29228;-64
2022/01/04 09:40:08;;;;;;;16.60;9.83;;;;;;;9.11;76.70;98492.06;2093097;83;31787;-64
2022/01/04 09:43:10;;;;;;;13.40;8.70;;;;;;;9.19;76.57;98487.95;2058539;86;32991;-63
2022/01/04 09:46:12;;;;;;;12.55;8.68;;;;;;;9.21;76.49;98474.88;2084548;84;30151;-66
2022/01/04 09:49:16;;;;;;;14.35;8.65;;;;;;;9.21;76.27;98476.67;2088745;84;27653;-67
2022/01/04 09:52:21;;;;;;;12.68;8.73;;;;;;;9.23;76.44;98475.63;2077168;85;29442;-64
2022/01/04 09:55:23;;;;;;;13.15;8.53;;;;;;;9.26;76.50;98458.50;2091429;84;31202;-66
2022/01/04 09:58:26;;;;;;;17.75;9.83;;;;;;;9.24;76.20;98447.94;2075943;85;35052;-66
2022/01/04 10:01:38;;;;;;;10.80;7.28;;;;;;;9.24;76.21;98441.72;2052408;85;30192;-67
2022/01/04 10:08:07;;;;;;;20.92;13.75;;;;;;;9.28;76.37;98419.16;2062660;79;27472;-65
2022/01/04 10:11:10;;;;;;;;;;;;;;;9.32;76.32;98414.43;2068833;84;31998;-65
2022/01/04 10:14:34;;;;;;;17.45;10.32;;;;;;;9.34;76.40;98413.37;2049190;84;34213;-61
2022/01/04 10:17:37;;;;;;;16.65;8.80;;;;;;;9.37;76.39;98411.77;2063852;86;29410;-64
2022/01/04 10:20:41;;;;;;;14.87;8.30;;;;;;;9.38;76.22;98408.64;2062172;84;27721;-63
2022/01/04 10:23:56;;;;;;;20.37;11.20;;;;;;;9.36;76.15;98402.55;2061162;85;29047;-65
2022/01/04 10:26:56;;;;;;;20.65;10.82;;;;;;;9.32;76.09;98403.28;2068380;84;31230;-63
2022/01/04 10:30:30;;;;;;;16.65;7.87;;;;;;;9.34;76.20;98403.15;2128961;83;33414;-64
2022/01/04 10:33:34;;;;;;;16.82;8.88;;;;;;;9.34;76.17;98385.77;2066593;86;29341;-65
2022/01/04 10:36:39;;;;;;;14.68;8.53;;;;;;;9.32;76.10;98377.02;2066667;86;27725;-63
2022/01/04 10:40:04;;;;;;;20.17;9.30;;;;;;;9.29;75.95;98375.44;2066831;86;29655;-63
2022/01/04 10:43:16;;;;;;;15.35;9.08;;;;;;;9.26;76.03;98371.66;2066235;86;32291;-63
2022/01/04 10:46:31;;;;;;;15.45;8.38;;;;;;;9.27;76.22;98359.51;2066338;86;33142;-63
2022/01/04 10:49:39;;;;;;;14.87;8.68;;;;;;;9.30;76.17;98347.76;2066899;85;29373;-62
2022/01/04 10:52:41;;;;;;;15.88;9.73;;;;;;;9.31;76.25;98345.45;2075717;83;27764;-61
2022/01/04 10:55:44;;;;;;;13.32;8.98;;;;;;;9.26;76.14;98334.25;2097750;82;28698;-62
2022/01/04 10:58:48;;;;;;;19.48;11.60;;;;;;;9.23;76.21;98335.81;2111325;83;32178;-63
2022/01/04 11:01:50;;;;;;;14.35;7.72;;;;;;;9.25;76.33;98324.53;2114303;83;32990;-63
2022/01/04 11:05:14;;;;;;;13.20;7.30;;;;;;;9.24;76.32;98318.35;2105970;83;30477;-62
2022/01/04 11:08:17;;;;;;;185.10;88.58;;;;;;;9.25;76.16;98311.17;2092333;83;27639;-62
2022/01/04 11:11:20;;;;;;;25.45;11.03;;;;;;;9.20;76.31;98304.85;2110485;82;28685;-63
2022/01/04 11:14:24;;;;;;;17.17;8.85;;;;;;;9.21;76.33;98297.67;2106515;83;31864;-62
2022/01/04 11:17:26;;;;;;;16.37;8.88;;;;;;;9.19;76.24;98287.59;2105265;83;33017;-61
2022/01/04 11:20:28;;;;;;;12.82;8.25;;;;;;;9.19;76.38;98275.56;2106234;83;30152;-61
2022/01/04 11:23:32;;;;;;;16.52;9.23;;;;;;;9.21;76.37;98270.96;2105209;83;27742;-62
2022/01/04 11:26:34;;;;;;;17.87;9.58;;;;;;;9.21;76.39;98270.96;2105819;82;29901;-63
2022/01/04 11:29:38;;;;;;;21.02;9.35;;;;;;;9.24;76.57;98262.72;2110404;83;30800;-63
2022/01/04 11:32:43;;;;;;;13.75;9.83;;;;;;;9.32;76.78;98256.78;2104100;83;33854;-62
2022/01/04 11:35:47;;;;;;;17.80;10.95;;;;;;;9.38;76.51;98253.14;2104271;83;28784;-62
2022/01/04 11:38:49;;;;;;;17.15;9.58;;;;;;;9.41;76.41;98241.37;2104391;83;27753;-62
2022/01/04 11:41:52;;;;;;;14.10;8.10;;;;;;;9.48;76.68;98238.58;2105091;82;29088;-63
2022/01/04 11:44:55;;;;;;;15.65;8.73;;;;;;;9.51;76.26;98226.31;2102667;82;32263;-63
2022/01/04 11:47:57;;;;;;;15.78;9.05;;;;;;;9.53;76.33;98220.36;2104491;82;33117;-63
2022/01/04 11:51:03;;;;;;;15.03;7.83;;;;;;;9.57;76.28;98208.46;2118439;82;29358;-62
2022/01/04 11:54:27;;;;;;;15.20;8.23;;;;;;;9.62;76.28;98197.87;2145498;83;27735;-62
2022/01/04 11:57:31;;;;;;;17.32;8.40;;;;;;;9.65;76.05;98192.28;2065653;86;29741;-62
2022/01/04 12:00:37;;;;;;;12.53;7.75;;;;;;;9.66;76.05;98180.61;2034679;86;32239;-63
2022/01/04 12:03:48;;;;;;;10.40;6.78;;;;;;;9.69;76.16;98173.19;2112399;83;32954;-62
2022/01/04 12:06:49;;;;;;;14.53;7.97;;;;;;;9.67;75.90;98160.45;2102145;84;29405;-62
2022/01/04 12:09:56;;;;;;;13.22;8.80;;;;;;;9.67;75.92;98152.44;2100523;84;27827;-62
2022/01/04 12:13:12;;;;;;;17.80;8.03;;;;;;;9.62;75.78;98139.05;2091454;84;29555;-63
2022/01/04 12:16:14;;;;;;;15.83;7.92;;;;;;;9.61;75.86;98132.88;2106643;84;31479;-64
2022/01/04 12:19:16;;;;;;;16.20;8.55;;;;;;;9.61;75.97;98139.55;2105332;84;33206;-63
2022/01/04 12:22:32;;;;;;;12.43;8.43;;;;;;;9.61;75.99;98123.98;2107070;84;30043;-63
2022/01/04 12:25:37;;;;;;;18.52;9.58;;;;;;;9.58;75.84;98111.26;2086791;84;27651;-63
2022/01/04 12:28:45;;;;;;;15.55;9.55;;;;;;;9.57;76.06;98104.21;2065464;84;29529;-62
2022/01/04 12:31:51;;;;;;;15.93;9.83;;;;;;;9.60;76.11;98104.44;2065597;86;31448;-63
2022/01/04 12:35:00;;;;;;;14.87;10.68;;;;;;;9.62;76.04;98098.95;2065553;86;32946;-63
2022/01/04 12:37:57;;;;;;;15.00;9.23;;;;;;;9.61;76.07;98086.56;2065342;86;29338;-62
2022/01/04 12:41:01;;;;;;;17.52;10.23;;;;;;;9.64;76.03;98088.98;2022062;86;27736;-63
2022/01/04 12:44:05;;;;;;;19.32;10.60;;;;;;;9.65;76.13;98082.67;2065795;84;29505;-63
2022/01/04 12:47:09;;;;;;;59.13;38.28;;;;;;;9.68;76.32;98069.05;2065937;86;31975;-62
2022/01/04 12:50:11;;;;;;;27.13;13.32;;;;;;;9.73;76.35;98070.88;2065735;86;32971;-62
2022/01/04 12:53:13;;;;;;;20.05;11.88;;;;;;;9.72;75.95;98060.65;2065676;86;30164;-63
2022/01/04 12:56:15;;;;;;;17.57;12.93;;;;;;;9.71;76.07;98059.45;2065912;86;27623;-63
2022/01/04 12:59:45;;;;;;;16.52;12.40;;;;;;;9.71;76.00;98053.60;2065477;84;29997;-62
2022/01/04 13:02:47;;;;;;;20.90;12.65;;;;;;;9.69;76.09;98054.21;2066252;86;31038;-63
2022/01/04 13:06:03;;;;;;;19.40;12.60;;;;;;;9.72;76.31;98041.94;2065425;86;33779;-63
2022/01/04 13:09:05;;;;;;;20.45;12.43;;;;;;;9.74;76.25;98048.52;2102411;83;29391;-63
2022/01/04 13:12:08;;;;;;;20.40;13.72;;;;;;;9.73;76.24;98044.97;2131337;83;28368;-63
2022/01/04 13:15:13;;;;;;;20.82;14.98;;;;;;;9.77;76.45;98031.35;2131317;83;29618;-63
2022/01/04 13:18:20;;;;;;;23.42;14.50;;;;;;;9.79;76.38;98022.72;2131722;83;30999;-63
2022/01/04 13:21:28;;;;;;;25.52;15.63;;;;;;;9.81;76.39;98018.93;2129787;83;32966;-63
2022/01/04 13:24:45;;;;;;;22.05;15.25;;;;;;;9.84;76.48;98012.50;2131740;83;29687;-63
2022/01/04 13:27:47;;;;;;;18.17;13.30;;;;;;;9.82;76.30;98001.08;2131954;83;27683;-63
2022/01/04 13:30:49;;;;;;;21.17;13.13;;;;;;;9.80;76.33;98002.53;2131684;83;29210;-63
2022/01/04 13:33:54;;;;;;;21.12;13.60;;;;;;;9.80;76.41;97995.01;2122251;83;33170;-63
2022/01/04 13:36:55;;;;;;;20.50;13.77;;;;;;;9.78;76.40;97991.61;2107243;84;32961;-63
2022/01/04 13:39:57;;;;;;;21.17;13.15;;;;;;;9.78;76.53;97984.92;2106986;84;30463;-63
2022/01/04 13:43:09;;;;;;;20.35;13.43;;;;;;;9.76;76.50;97980.19;2106692;84;27714;-63
2022/01/04 13:46:15;;;;;;;18.50;12.95;;;;;;;9.73;76.65;97975.95;2107076;84;28833;-63
2022/01/04 13:49:26;;;;;;;21.90;13.98;;;;;;;9.71;76.63;97968.05;2107010;84;32219;-63
2022/01/04 13:52:28;;;;;;;22.62;13.43;;;;;;;9.69;76.78;97965.98;2106903;84;33861;-63
2022/01/04 13:56:01;;;;;;;18.37;12.73;;;;;;;9.70;76.84;97964.17;2106425;84;27738;-62
2022/01/04 13:59:04;;;;;;;18.75;12.70;;;;;;;9.72;76.87;97969.75;2107281;84;27614;-63
2022/01/04 14:02:25;;;;;;;17.92;11.10;;;;;;;9.68;76.90;97964.29;2107008;84;29594;-62
2022/01/04 14:05:36;;;;;;;18.25;11.50;;;;;;;9.67;76.98;97949.26;2130619;83;30884;-62
2022/01/04 14:08:51;;;;;;;23.87;11.60;;;;;;;9.65;77.00;97939.64;2122673;83;33839;-63
2022/01/04 14:12:07;;;;;;;19.27;11.03;;;;;;;9.63;77.04;97938.92;2100424;83;30506;-62
2022/01/04 14:15:11;;;;;;;14.87;10.10;;;;;;;9.60;77.07;97937.88;2100562;83;27618;-62
2022/01/04 14:18:12;;;;;;;17.82;9.90;;;;;;;9.57;77.17;97937.62;2100482;84;28656;-62
2022/01/04 14:21:15;;;;;;;16.80;10.20;;;;;;;9.56;77.24;97926.56;2100111;84;32256;-63
2022/01/04 14:24:49;;;;;;;14.43;9.58;;;;;;;9.54;77.29;97925.84;2100104;83;34288;-62
2022/01/04 14:27:51;;;;;;;14.23;9.08;;;;;;;9.51;77.39;97908.75;2099802;84;30342;-62
2022/01/04 14:30:53;;;;;;;14.05;8.55;;;;;;;9.48;77.42;97910.34;2100410;84;27731;-62
2022/01/04 14:33:55;;;;;;;21.00;13.55;;;;;;;9.47;77.49;97914.82;2100624;84;28482;-62
2022/01/04 14:37:00;;;;;;;25.48;15.85;;;;;;;9.47;77.52;97917.49;2100204;84;32505;-62